Ek-star — LAMT5 — position and weather

sailwx.info

Track history (hours):
 
Tides and Currents Weather Stations Pressure Air Temp Water Temp Dewpoint Dewpoint Depression Visibility Wind Speed Wind Dir Waves Ship Positions

Ek-star

Last reported at 2016-Dec-08 14:21 UTC. Time now 2016-Dec-08 16:02 UTC.
Position N 57°47' E 009°46'.

Length 135 m; draft 8.3 m.

Type: Tanker. MMSI: 257433000.

Date/timePositionNaut miles runAvg speedWind from/ knotsBaromVisibWave heightAir tempDewpointWater temp
2016-Dec-08 14:21N 57°47' E 009°46'2510.8
2016-Dec-08 12:03N 58°00' E 010°25'510.3
2016-Dec-08 11:32N 58°03' E 010°34'1110.4
2016-Dec-08 10:30N 58°08' E 010°52'1010.5
2016-Dec-08 09:32N 58°13' E 011°08'1010.3
2016-Dec-08 08:33N 58°20' E 011°23'2 0.1
2016-Dec-07 11:33N 58°21' E 011°25'7 6.8
2016-Dec-07 10:33N 58°16' E 011°16'5 2.3
2016-Dec-07 08:18N 58°12' E 011°11'0 0.0
2016-Dec-07 07:21N 58°12' E 011°11'0 0.0
2016-Dec-07 06:30N 58°12' E 011°11'0 0.0
2016-Dec-07 05:24N 58°12' E 011°11'0 0.0
2016-Dec-07 04:30N 58°12' E 011°11'0 0.0
2016-Dec-07 03:18N 58°12' E 011°11'0 0.0
2016-Dec-07 02:30N 58°12' E 011°11'0 0.1
2016-Dec-07 01:30N 58°12' E 011°11'0 0.0
2016-Dec-07 00:30N 58°12' E 011°11'0 0.0
2016-Dec-06 23:30N 58°12' E 011°11'0 0.0
2016-Dec-06 22:24N 58°12' E 011°11'0 0.0
2016-Dec-06 21:33N 58°12' E 011°11'0 0.0
2016-Dec-06 20:30N 58°12' E 011°11'0 0.0
2016-Dec-06 18:30N 58°12' E 011°11'0 0.0
2016-Dec-06 17:33N 58°12' E 011°11'0 0.0
2016-Dec-06 16:30N 58°12' E 011°11'0 0.0
2016-Dec-06 15:27N 58°12' E 011°11'0 0.0
2016-Dec-06 14:30N 58°12' E 011°11'0 0.0
2016-Dec-06 13:33N 58°12' E 011°11'0 0.0
2016-Dec-06 12:30N 58°12' E 011°11'0 0.0
2016-Dec-06 11:30N 58°12' E 011°11'0 0.0
2016-Dec-06 10:18N 58°12' E 011°11'0 0.0
2016-Dec-06 09:30N 58°12' E 011°11'0 0.0
2016-Dec-06 08:09N 58°12' E 011°11'0 0.0
2016-Dec-06 07:24N 58°12' E 011°11'0 0.0
2016-Dec-06 06:30N 58°12' E 011°11'0 0.0
2016-Dec-06 05:30N 58°12' E 011°11'0 0.0
2016-Dec-06 04:33N 58°12' E 011°11'0 0.0
2016-Dec-06 03:30N 58°12' E 011°11'0 0.1
2016-Dec-06 02:30N 58°12' E 011°11'0 0.0
2016-Dec-06 00:24N 58°12' E 011°11'0 0.1
2016-Dec-05 23:24N 58°12' E 011°11'0 0.0
2016-Dec-05 22:30N 58°12' E 011°11'0 0.1
2016-Dec-05 21:30N 58°12' E 011°11'0 0.0
2016-Dec-05 20:30N 58°12' E 011°11'0 0.0
2016-Dec-05 19:30N 58°12' E 011°11'0 0.0
2016-Dec-05 18:24N 58°12' E 011°12'0 0.1
2016-Dec-05 17:27N 58°12' E 011°12'0 0.0
2016-Dec-05 16:30N 58°12' E 011°12'0 0.0
2016-Dec-05 15:33N 58°12' E 011°12'0 0.0
2016-Dec-05 14:28N 58°12' E 011°12'5 5.0
2016-Dec-05 13:33N 58°07' E 011°13'1312.5
2016-Dec-05 12:33N 57°55' E 011°13'1212.2
2016-Dec-05 11:33N 57°43' E 011°17'1212.3
2016-Dec-05 10:33N 57°31' E 011°25'1211.9
2016-Dec-05 09:33N 57°20' E 011°32'1211.8
2016-Dec-05 08:33N 57°09' E 011°39'44 2.3
2016-Dec-04 13:33N 56°58' E 010°21'1212.0
2016-Dec-04 12:33N 57°04' E 010°02'3 2.3
2016-Dec-04 11:27N 57°03' E 009°58'0 0.0
2016-Dec-04 09:29N 57°03' E 009°58'0 0.0
2016-Dec-04 08:33N 57°03' E 009°58'0 0.0
2016-Dec-04 07:26N 57°03' E 009°58'0 0.0
2016-Dec-04 06:30N 57°03' E 009°58'0 0.0
2016-Dec-04 05:27N 57°03' E 009°58'0 0.0
2016-Dec-04 04:26N 57°03' E 009°58'0 0.0
2016-Dec-04 03:33N 57°03' E 009°58'0 0.0
2016-Dec-04 02:29N 57°03' E 009°58'0 0.0
2016-Dec-04 01:21N 57°03' E 009°58'0 0.0
2016-Dec-04 00:24N 57°03' E 009°58'0 0.0
2016-Dec-03 23:32N 57°03' E 009°58'0 0.0
2016-Dec-03 22:27N 57°03' E 009°58'0 0.0
2016-Dec-03 21:30N 57°03' E 009°58'0 0.0
2016-Dec-03 20:33N 57°03' E 009°58'0 0.0
2016-Dec-03 19:30N 57°03' E 009°58'0 0.0
2016-Dec-03 18:30N 57°03' E 009°58'0 0.0
2016-Dec-03 17:33N 57°03' E 009°58'4 4.2
2016-Dec-03 16:33N 57°03' E 010°05'53 6.3
2016-Dec-03 08:09N 57°00' E 011°43'813.7
2016-Dec-03 07:33N 57°08' E 011°38'1313.2
2016-Dec-03 06:33N 57°21' E 011°35'1313.3
2016-Dec-03 05:33N 57°34' E 011°38'1110.5
2016-Dec-03 04:33N 57°41' E 011°52'0 0.2
2016-Dec-03 03:31N 57°41' E 011°52'0 0.0
2016-Dec-03 02:31N 57°41' E 011°52'0 0.0
2016-Dec-03 01:31N 57°41' E 011°52'0 0.0
2016-Dec-03 00:31N 57°41' E 011°52'0 0.0
2016-Dec-02 23:31N 57°41' E 011°52'0 0.0
2016-Dec-02 22:31N 57°41' E 011°52'0 0.0
2016-Dec-02 21:31N 57°41' E 011°52'0 0.0
2016-Dec-02 20:31N 57°41' E 011°52'0 0.0
2016-Dec-02 19:31N 57°41' E 011°52'0 0.0
2016-Dec-02 18:31N 57°41' E 011°52'0 0.0
2016-Dec-02 17:31N 57°41' E 011°52'0 0.0
2016-Dec-02 16:31N 57°41' E 011°52'0 0.0
2016-Dec-02 15:31N 57°41' E 011°52'0 0.0
2016-Dec-02 14:31N 57°41' E 011°52'0 0.0
2016-Dec-02 13:31N 57°41' E 011°52'0 0.0
2016-Dec-02 12:31N 57°41' E 011°52'0 0.0
2016-Dec-02 11:31N 57°41' E 011°52'0 0.0
2016-Dec-02 10:31N 57°41' E 011°52'0 0.0
2016-Dec-02 09:31N 57°41' E 011°52'0 0.0
2016-Dec-02 08:31N 57°41' E 011°52'0 0.0
2016-Dec-02 07:31N 57°41' E 011°52'0 0.0
2016-Dec-02 06:31N 57°41' E 011°52'0 0.0
2016-Dec-02 05:31N 57°41' E 011°52'0 0.0
2016-Dec-02 04:31N 57°41' E 011°52'0 0.0
2016-Dec-02 03:31N 57°41' E 011°52'0 0.0
2016-Dec-02 02:31N 57°41' E 011°52'0 0.0
2016-Dec-02 01:31N 57°41' E 011°52'0 0.0
2016-Dec-02 00:31N 57°41' E 011°52'0 0.0
2016-Dec-01 23:31N 57°41' E 011°52'3 2.7
2016-Dec-01 22:34N 57°40' E 011°48'1111.0
2016-Dec-01 21:34N 57°31' E 011°37'1211.9
2016-Dec-01 20:34N 57°19' E 011°37'1212.0
2016-Dec-01 19:34N 57°07' E 011°40'5111.6
2016-Dec-01 15:09N 56°18' E 012°06'712.2
2016-Dec-01 14:33N 56°14' E 012°16'1212.3
2016-Dec-01 13:33N 56°06' E 012°34'1111.2
2016-Dec-01 12:34N 55°57' E 012°43'1211.7
2016-Dec-01 11:33N 55°45' E 012°41'5 4.7
2016-Dec-01 10:34N 55°41' E 012°38'0 0.0
2016-Dec-01 09:31N 55°41' E 012°38'0 0.0
2016-Dec-01 08:31N 55°41' E 012°38'0 0.0
2016-Dec-01 07:31N 55°41' E 012°38'0 0.0
2016-Dec-01 06:31N 55°41' E 012°38'0 0.0
2016-Dec-01 05:31N 55°41' E 012°38'0 0.0
2016-Dec-01 04:31N 55°41' E 012°38'0 0.0
2016-Dec-01 03:31N 55°41' E 012°38'0 0.0
2016-Dec-01 02:31N 55°41' E 012°38'0 0.0
2016-Dec-01 01:33N 55°41' E 012°38'0 0.0
2016-Dec-01 00:31N 55°41' E 012°38'0 0.0
2016-Nov-30 23:31N 55°41' E 012°38'0 0.0
2016-Nov-30 22:31N 55°41' E 012°38'0 0.0
2016-Nov-30 21:32N 55°41' E 012°38'0 0.0
2016-Nov-30 20:32N 55°41' E 012°38'0 0.0
2016-Nov-30 19:32N 55°41' E 012°38'0 0.0
2016-Nov-30 18:32N 55°41' E 012°38'0 0.0
2016-Nov-30 17:32N 55°41' E 012°38'0 0.0
2016-Nov-30 16:32N 55°41' E 012°38'0 0.0
2016-Nov-30 15:32N 55°41' E 012°38'0 0.0
2016-Nov-30 14:32N 55°41' E 012°38'0 0.0
2016-Nov-30 13:32N 55°41' E 012°38'0 0.0
2016-Nov-30 12:32N 55°41' E 012°38'0 0.0
2016-Nov-30 11:32N 55°41' E 012°38'0 0.0
2016-Nov-30 10:32N 55°41' E 012°38'0 0.0
2016-Nov-30 09:32N 55°41' E 012°38'0 0.0
2016-Nov-30 08:32N 55°41' E 012°38'0 0.0
2016-Nov-30 07:32N 55°41' E 012°38'0 0.0
2016-Nov-30 06:32N 55°41' E 012°38'0 0.0
2016-Nov-30 05:31N 55°41' E 012°38'1 0.5
2016-Nov-30 04:33N 55°41' E 012°39'8 7.7
2016-Nov-30 03:33N 55°48' E 012°43'9 8.7
2016-Nov-30 02:34N 55°57' E 012°39'1110.6
2016-Nov-30 01:34N 56°07' E 012°32'9 9.2
2016-Nov-30 00:33N 56°12' E 012°18'56 9.0
2016-Nov-29 18:19N 57°04' E 011°40'8 9.8
2016-Nov-29 17:33N 57°11' E 011°36'1211.8
2016-Nov-29 16:33N 57°23' E 011°35'1312.6
2016-Nov-29 15:34N 57°36' E 011°39'9 9.1
2016-Nov-29 14:33N 57°41' E 011°52'0 0.0
2016-Nov-29 13:32N 57°41' E 011°52'0 0.0
2016-Nov-29 12:32N 57°41' E 011°52'0 0.0
2016-Nov-29 11:32N 57°41' E 011°52'0 0.0
2016-Nov-29 10:32N 57°41' E 011°52'0 0.0
2016-Nov-29 09:32N 57°41' E 011°52'0 0.0
2016-Nov-29 08:29N 57°41' E 011°52'0 0.0
2016-Nov-29 07:32N 57°41' E 011°52'0 0.0
2016-Nov-29 06:32N 57°41' E 011°52'0 0.0
2016-Nov-29 05:32N 57°41' E 011°52'0 0.0
2016-Nov-29 04:32N 57°41' E 011°52'0 0.0
2016-Nov-29 03:32N 57°41' E 011°52'0 0.0
2016-Nov-29 02:32N 57°41' E 011°52'0 0.0
2016-Nov-29 01:32N 57°41' E 011°52'0 0.0
2016-Nov-29 00:32N 57°41' E 011°52'0 0.0
2016-Nov-28 23:33N 57°41' E 011°52'0 0.0
2016-Nov-28 22:32N 57°41' E 011°52'0 0.0
2016-Nov-28 21:31N 57°41' E 011°52'0 0.0
2016-Nov-28 20:31N 57°41' E 011°52'0 0.0
2016-Nov-28 19:31N 57°41' E 011°52'0 0.0
2016-Nov-28 18:31N 57°41' E 011°52'0 0.0
2016-Nov-28 17:31N 57°41' E 011°52'0 0.0
2016-Nov-28 16:33N 57°41' E 011°52'0 0.0
2016-Nov-28 15:33N 57°41' E 011°52'0 0.0
2016-Nov-28 14:33N 57°41' E 011°52'  
Track history (hours):
 
Tides and Currents Weather Stations Pressure Air Temp Water Temp Dewpoint Dewpoint Depression Visibility Wind Speed Wind Dir Waves Ship Positions

Ek-star

Last reported at 2016-Dec-08 14:21 UTC. Time now 2016-Dec-08 16:02 UTC.
Position N 57°47' E 009°46'.

Length 135 m; draft 8.3 m.

Type: Tanker. MMSI: 257433000.

Date/timePositionNaut miles runAvg speedWind from/ knotsBaromVisibWave heightAir tempDewpointWater temp
2016-Dec-08 14:21N 57°47' E 009°46'2510.8
2016-Dec-08 12:03N 58°00' E 010°25'510.3
2016-Dec-08 11:32N 58°03' E 010°34'1110.4
2016-Dec-08 10:30N 58°08' E 010°52'1010.5
2016-Dec-08 09:32N 58°13' E 011°08'1010.3
2016-Dec-08 08:33N 58°20' E 011°23'2 0.1
2016-Dec-07 11:33N 58°21' E 011°25'7 6.8
2016-Dec-07 10:33N 58°16' E 011°16'5 2.3
2016-Dec-07 08:18N 58°12' E 011°11'0 0.0
2016-Dec-07 07:21N 58°12' E 011°11'0 0.0
2016-Dec-07 06:30N 58°12' E 011°11'0 0.0
2016-Dec-07 05:24N 58°12' E 011°11'0 0.0
2016-Dec-07 04:30N 58°12' E 011°11'0 0.0
2016-Dec-07 03:18N 58°12' E 011°11'0 0.0
2016-Dec-07 02:30N 58°12' E 011°11'0 0.1
2016-Dec-07 01:30N 58°12' E 011°11'0 0.0
2016-Dec-07 00:30N 58°12' E 011°11'0 0.0
2016-Dec-06 23:30N 58°12' E 011°11'0 0.0
2016-Dec-06 22:24N 58°12' E 011°11'0 0.0
2016-Dec-06 21:33N 58°12' E 011°11'0 0.0
2016-Dec-06 20:30N 58°12' E 011°11'0 0.0
2016-Dec-06 18:30N 58°12' E 011°11'0 0.0
2016-Dec-06 17:33N 58°12' E 011°11'0 0.0
2016-Dec-06 16:30N 58°12' E 011°11'0 0.0
2016-Dec-06 15:27N 58°12' E 011°11'0 0.0
2016-Dec-06 14:30N 58°12' E 011°11'0 0.0
2016-Dec-06 13:33N 58°12' E 011°11'0 0.0
2016-Dec-06 12:30N 58°12' E 011°11'0 0.0
2016-Dec-06 11:30N 58°12' E 011°11'0 0.0
2016-Dec-06 10:18N 58°12' E 011°11'0 0.0
2016-Dec-06 09:30N 58°12' E 011°11'0 0.0
2016-Dec-06 08:09N 58°12' E 011°11'0 0.0
2016-Dec-06 07:24N 58°12' E 011°11'0 0.0
2016-Dec-06 06:30N 58°12' E 011°11'0 0.0
2016-Dec-06 05:30N 58°12' E 011°11'0 0.0
2016-Dec-06 04:33N 58°12' E 011°11'0 0.0
2016-Dec-06 03:30N 58°12' E 011°11'0 0.1
2016-Dec-06 02:30N 58°12' E 011°11'0 0.0
2016-Dec-06 00:24N 58°12' E 011°11'0 0.1
2016-Dec-05 23:24N 58°12' E 011°11'0 0.0
2016-Dec-05 22:30N 58°12' E 011°11'0 0.1
2016-Dec-05 21:30N 58°12' E 011°11'0 0.0
2016-Dec-05 20:30N 58°12' E 011°11'0 0.0
2016-Dec-05 19:30N 58°12' E 011°11'0 0.0
2016-Dec-05 18:24N 58°12' E 011°12'0 0.1
2016-Dec-05 17:27N 58°12' E 011°12'0 0.0
2016-Dec-05 16:30N 58°12' E 011°12'0 0.0
2016-Dec-05 15:33N 58°12' E 011°12'0 0.0
2016-Dec-05 14:28N 58°12' E 011°12'5 5.0
2016-Dec-05 13:33N 58°07' E 011°13'1312.5
2016-Dec-05 12:33N 57°55' E 011°13'1212.2
2016-Dec-05 11:33N 57°43' E 011°17'1212.3
2016-Dec-05 10:33N 57°31' E 011°25'1211.9
2016-Dec-05 09:33N 57°20' E 011°32'1211.8
2016-Dec-05 08:33N 57°09' E 011°39'44 2.3
2016-Dec-04 13:33N 56°58' E 010°21'1212.0
2016-Dec-04 12:33N 57°04' E 010°02'3 2.3
2016-Dec-04 11:27N 57°03' E 009°58'0 0.0
2016-Dec-04 09:29N 57°03' E 009°58'0 0.0
2016-Dec-04 08:33N 57°03' E 009°58'0 0.0
2016-Dec-04 07:26N 57°03' E 009°58'0 0.0
2016-Dec-04 06:30N 57°03' E 009°58'0 0.0
2016-Dec-04 05:27N 57°03' E 009°58'0 0.0
2016-Dec-04 04:26N 57°03' E 009°58'0 0.0
2016-Dec-04 03:33N 57°03' E 009°58'0 0.0
2016-Dec-04 02:29N 57°03' E 009°58'0 0.0
2016-Dec-04 01:21N 57°03' E 009°58'0 0.0
2016-Dec-04 00:24N 57°03' E 009°58'0 0.0
2016-Dec-03 23:32N 57°03' E 009°58'0 0.0
2016-Dec-03 22:27N 57°03' E 009°58'0 0.0
2016-Dec-03 21:30N 57°03' E 009°58'0 0.0
2016-Dec-03 20:33N 57°03' E 009°58'0 0.0
2016-Dec-03 19:30N 57°03' E 009°58'0 0.0
2016-Dec-03 18:30N 57°03' E 009°58'0 0.0
2016-Dec-03 17:33N 57°03' E 009°58'4 4.2
2016-Dec-03 16:33N 57°03' E 010°05'53 6.3
2016-Dec-03 08:09N 57°00' E 011°43'813.7
2016-Dec-03 07:33N 57°08' E 011°38'1313.2
2016-Dec-03 06:33N 57°21' E 011°35'1313.3
2016-Dec-03 05:33N 57°34' E 011°38'1110.5
2016-Dec-03 04:33N 57°41' E 011°52'0 0.2
2016-Dec-03 03:31N 57°41' E 011°52'0 0.0
2016-Dec-03 02:31N 57°41' E 011°52'0 0.0
2016-Dec-03 01:31N 57°41' E 011°52'0 0.0
2016-Dec-03 00:31N 57°41' E 011°52'0 0.0
2016-Dec-02 23:31N 57°41' E 011°52'0 0.0
2016-Dec-02 22:31N 57°41' E 011°52'0 0.0
2016-Dec-02 21:31N 57°41' E 011°52'0 0.0
2016-Dec-02 20:31N 57°41' E 011°52'0 0.0
2016-Dec-02 19:31N 57°41' E 011°52'0 0.0
2016-Dec-02 18:31N 57°41' E 011°52'0 0.0
2016-Dec-02 17:31N 57°41' E 011°52'0 0.0
2016-Dec-02 16:31N 57°41' E 011°52'0 0.0
2016-Dec-02 15:31N 57°41' E 011°52'0 0.0
2016-Dec-02 14:31N 57°41' E 011°52'0 0.0
2016-Dec-02 13:31N 57°41' E 011°52'0 0.0
2016-Dec-02 12:31N 57°41' E 011°52'0 0.0
2016-Dec-02 11:31N 57°41' E 011°52'0 0.0
2016-Dec-02 10:31N 57°41' E 011°52'0 0.0
2016-Dec-02 09:31N 57°41' E 011°52'0 0.0
2016-Dec-02 08:31N 57°41' E 011°52'0 0.0
2016-Dec-02 07:31N 57°41' E 011°52'0 0.0
2016-Dec-02 06:31N 57°41' E 011°52'0 0.0
2016-Dec-02 05:31N 57°41' E 011°52'0 0.0
2016-Dec-02 04:31N 57°41' E 011°52'0 0.0
2016-Dec-02 03:31N 57°41' E 011°52'0 0.0
2016-Dec-02 02:31N 57°41' E 011°52'0 0.0
2016-Dec-02 01:31N 57°41' E 011°52'0 0.0
2016-Dec-02 00:31N 57°41' E 011°52'0 0.0
2016-Dec-01 23:31N 57°41' E 011°52'3 2.7
2016-Dec-01 22:34N 57°40' E 011°48'1111.0
2016-Dec-01 21:34N 57°31' E 011°37'1211.9
2016-Dec-01 20:34N 57°19' E 011°37'1212.0
2016-Dec-01 19:34N 57°07' E 011°40'5111.6
2016-Dec-01 15:09N 56°18' E 012°06'712.2
2016-Dec-01 14:33N 56°14' E 012°16'1212.3
2016-Dec-01 13:33N 56°06' E 012°34'1111.2
2016-Dec-01 12:34N 55°57' E 012°43'1211.7
2016-Dec-01 11:33N 55°45' E 012°41'5 4.7
2016-Dec-01 10:34N 55°41' E 012°38'0 0.0
2016-Dec-01 09:31N 55°41' E 012°38'0 0.0
2016-Dec-01 08:31N 55°41' E 012°38'0 0.0
2016-Dec-01 07:31N 55°41' E 012°38'0 0.0
2016-Dec-01 06:31N 55°41' E 012°38'0 0.0
2016-Dec-01 05:31N 55°41' E 012°38'0 0.0
2016-Dec-01 04:31N 55°41' E 012°38'0 0.0
2016-Dec-01 03:31N 55°41' E 012°38'0 0.0
2016-Dec-01 02:31N 55°41' E 012°38'0 0.0
2016-Dec-01 01:33N 55°41' E 012°38'0 0.0
2016-Dec-01 00:31N 55°41' E 012°38'0 0.0
2016-Nov-30 23:31N 55°41' E 012°38'0 0.0
2016-Nov-30 22:31N 55°41' E 012°38'0 0.0
2016-Nov-30 21:32N 55°41' E 012°38'0 0.0
2016-Nov-30 20:32N 55°41' E 012°38'0 0.0
2016-Nov-30 19:32N 55°41' E 012°38'0 0.0
2016-Nov-30 18:32N 55°41' E 012°38'0 0.0
2016-Nov-30 17:32N 55°41' E 012°38'0 0.0
2016-Nov-30 16:32N 55°41' E 012°38'0 0.0
2016-Nov-30 15:32N 55°41' E 012°38'0 0.0
2016-Nov-30 14:32N 55°41' E 012°38'0 0.0
2016-Nov-30 13:32N 55°41' E 012°38'0 0.0
2016-Nov-30 12:32N 55°41' E 012°38'0 0.0
2016-Nov-30 11:32N 55°41' E 012°38'0 0.0
2016-Nov-30 10:32N 55°41' E 012°38'0 0.0
2016-Nov-30 09:32N 55°41' E 012°38'0 0.0
2016-Nov-30 08:32N 55°41' E 012°38'0 0.0
2016-Nov-30 07:32N 55°41' E 012°38'0 0.0
2016-Nov-30 06:32N 55°41' E 012°38'0 0.0
2016-Nov-30 05:31N 55°41' E 012°38'1 0.5
2016-Nov-30 04:33N 55°41' E 012°39'8 7.7
2016-Nov-30 03:33N 55°48' E 012°43'9 8.7
2016-Nov-30 02:34N 55°57' E 012°39'1110.6
2016-Nov-30 01:34N 56°07' E 012°32'9 9.2
2016-Nov-30 00:33N 56°12' E 012°18'56 9.0
2016-Nov-29 18:19N 57°04' E 011°40'8 9.8
2016-Nov-29 17:33N 57°11' E 011°36'1211.8
2016-Nov-29 16:33N 57°23' E 011°35'1312.6
2016-Nov-29 15:34N 57°36' E 011°39'9 9.1
2016-Nov-29 14:33N 57°41' E 011°52'0 0.0
2016-Nov-29 13:32N 57°41' E 011°52'0 0.0
2016-Nov-29 12:32N 57°41' E 011°52'0 0.0
2016-Nov-29 11:32N 57°41' E 011°52'0 0.0
2016-Nov-29 10:32N 57°41' E 011°52'0 0.0
2016-Nov-29 09:32N 57°41' E 011°52'0 0.0
2016-Nov-29 08:29N 57°41' E 011°52'0 0.0
2016-Nov-29 07:32N 57°41' E 011°52'0 0.0
2016-Nov-29 06:32N 57°41' E 011°52'0 0.0
2016-Nov-29 05:32N 57°41' E 011°52'0 0.0
2016-Nov-29 04:32N 57°41' E 011°52'0 0.0
2016-Nov-29 03:32N 57°41' E 011°52'0 0.0
2016-Nov-29 02:32N 57°41' E 011°52'0 0.0
2016-Nov-29 01:32N 57°41' E 011°52'0 0.0
2016-Nov-29 00:32N 57°41' E 011°52'0 0.0
2016-Nov-28 23:33N 57°41' E 011°52'0 0.0
2016-Nov-28 22:32N 57°41' E 011°52'0 0.0
2016-Nov-28 21:31N 57°41' E 011°52'0 0.0
2016-Nov-28 20:31N 57°41' E 011°52'0 0.0
2016-Nov-28 19:31N 57°41' E 011°52'0 0.0
2016-Nov-28 18:31N 57°41' E 011°52'0 0.0
2016-Nov-28 17:31N 57°41' E 011°52'0 0.0
2016-Nov-28 16:33N 57°41' E 011°52'0 0.0
2016-Nov-28 15:33N 57°41' E 011°52'0 0.0
2016-Nov-28 14:33N 57°41' E 011°52'  

Dump ship's entire track history